Time;durP1;ratioP1;P1;durP2;ratioP2;P2;SDS_P1;SDS_P2;PMS_P1;PMS_P2;Temp;Humidity;BMP_temperature;BMP_pressure;BME280_temperature;BME280_humidity;BME280_pressure;Samples;Min_cycle;Max_cycle;Signal;HPM_P1;HPM_P2
2023/07/22 00:02:12;;;;;;;0.00;0.00;;;;;;;;;;5034357;28;20025;-81
2023/07/22 00:04:38;;;;;;;0.00;0.00;;;;;;;;;;5034477;28;20072;-81
2023/07/22 00:07:05;;;;;;;0.35;0.22;;;;;;;;;;5034688;28;20048;-81
2023/07/22 00:09:33;;;;;;;0.00;0.00;;;;;;;;;;5034396;28;20076;-81
2023/07/22 00:11:59;;;;;;;0.00;0.00;;;;;;;;;;5033737;28;20029;-81
2023/07/22 00:14:26;;;;;;;0.00;0.00;;;;;;;;;;5034538;28;20029;-81
2023/07/22 00:16:52;;;;;;;0.10;0.10;;;;;;;;;;5034469;28;20052;-81
2023/07/22 00:19:18;;;;;;;0.10;0.10;;;;;;;;;;5034215;28;20399;-81
2023/07/22 00:21:44;;;;;;;0.10;0.10;;;;;;;;;;5034077;28;20132;-81
2023/07/22 00:24:10;;;;;;;0.10;0.10;;;;;;;;;;5034324;28;20112;-81
2023/07/22 00:26:36;;;;;;;0.10;0.10;;;;;;;;;;5033588;28;20029;-81
2023/07/22 00:29:02;;;;;;;0.17;0.17;;;;;;;;;;5033847;28;20022;-81
2023/07/22 00:31:28;;;;;;;0.10;0.10;;;;;;;;;;5033793;28;20488;-81
2023/07/22 00:33:54;;;;;;;0.10;0.10;;;;;;;;;;5033766;28;20033;-81
2023/07/22 00:36:20;;;;;;;0.00;0.00;;;;;;;;;;5033998;28;20025;-81
2023/07/22 00:38:46;;;;;;;0.10;0.10;;;;;;;;;;5033951;28;20057;-81
2023/07/22 00:41:12;;;;;;;0.00;0.00;;;;;;;;;;5033278;28;20033;-81
2023/07/22 00:43:38;;;;;;;0.00;0.00;;;;;;;;;;5033579;28;20029;-81
2023/07/22 00:46:04;;;;;;;0.13;0.13;;;;;;;;;;5034072;28;20105;-81
2023/07/22 00:48:31;;;;;;;0.10;0.10;;;;;;;;;;5033828;28;20075;-81
2023/07/22 00:50:58;;;;;;;0.00;0.00;;;;;;;;;;5033595;28;20030;-81
2023/07/22 00:53:24;;;;;;;0.10;0.10;;;;;;;;;;5033671;28;20456;-81
2023/07/22 00:55:50;;;;;;;0.10;0.10;;;;;;;;;;5033521;28;20385;-81
2023/07/22 00:58:16;;;;;;;0.03;0.03;;;;;;;;;;5033362;28;20049;-81
2023/07/22 01:00:42;;;;;;;0.00;0.00;;;;;;;;;;5033214;28;20029;-81
2023/07/22 01:03:08;;;;;;;0.00;0.00;;;;;;;;;;5033084;28;20038;-81
2023/07/22 01:05:36;;;;;;;0.10;0.10;;;;;;;;;;5033628;28;20029;-82
2023/07/22 01:08:02;;;;;;;0.10;0.10;;;;;;;;;;5033030;28;20037;-80
2023/07/22 01:10:28;;;;;;;0.00;0.00;;;;;;;;;;5032898;28;20491;-81
2023/07/22 01:12:56;;;;;;;0.10;0.10;;;;;;;;;;5033244;28;20026;-81
2023/07/22 01:15:22;;;;;;;0.00;0.00;;;;;;;;;;5033005;28;20025;-81
2023/07/22 01:17:48;;;;;;;0.00;0.00;;;;;;;;;;5033000;28;20049;-81
2023/07/22 01:20:15;;;;;;;0.00;0.00;;;;;;;;;;5033252;28;20171;-81
2023/07/22 01:22:43;;;;;;;0.00;0.00;;;;;;;;;;5032844;28;20031;-81
2023/07/22 01:25:09;;;;;;;0.05;0.05;;;;;;;;;;5033012;28;20116;-81
2023/07/22 01:27:36;;;;;;;0.10;0.10;;;;;;;;;;5033055;28;20481;-81
2023/07/22 01:30:03;;;;;;;0.00;0.00;;;;;;;;;;5032987;28;20048;-81
2023/07/22 01:32:29;;;;;;;0.00;0.00;;;;;;;;;;5032886;28;20104;-81
2023/07/22 01:34:55;;;;;;;0.00;0.00;;;;;;;;;;5033003;28;20058;-81
2023/07/22 01:37:21;;;;;;;0.45;0.10;;;;;;;;;;5032395;28;20032;-81
2023/07/22 01:39:47;;;;;;;0.10;0.10;;;;;;;;;;5032439;28;20029;-81
2023/07/22 01:42:13;;;;;;;0.00;0.00;;;;;;;;;;5032486;28;20093;-81
2023/07/22 01:44:40;;;;;;;0.10;0.10;;;;;;;;;;5032804;28;20123;-81
2023/07/22 01:47:06;;;;;;;0.10;0.10;;;;;;;;;;5032962;28;20044;-81
2023/07/22 01:49:33;;;;;;;0.00;0.00;;;;;;;;;;5032756;28;20025;-81
2023/07/22 01:52:00;;;;;;;0.10;0.10;;;;;;;;;;5031299;28;20386;-81
2023/07/22 01:54:26;;;;;;;0.10;0.10;;;;;;;;;;5032878;28;20022;-81
2023/07/22 01:56:52;;;;;;;0.20;0.17;;;;;;;;;;5032368;28;20431;-81
2023/07/22 01:59:18;;;;;;;1.17;0.32;;;;;;;;;;5032125;28;20030;-81
2023/07/22 02:01:44;;;;;;;0.10;0.10;;;;;;;;;;5032420;28;20068;-81
2023/07/22 02:04:10;;;;;;;0.00;0.00;;;;;;;;;;5032057;28;20045;-81
2023/07/22 02:06:36;;;;;;;0.10;0.10;;;;;;;;;;5031840;28;20045;-81
2023/07/22 02:09:08;;;;;;;0.10;0.10;;;;;;;;;;5032162;28;20502;-81
2023/07/22 02:11:35;;;;;;;0.05;0.05;;;;;;;;;;5032205;28;20024;-81
2023/07/22 02:14:01;;;;;;;0.30;0.30;;;;;;;;;;5032095;28;20036;-81
2023/07/22 02:16:27;;;;;;;0.10;0.10;;;;;;;;;;5032777;28;20033;-81
2023/07/22 02:18:52;;;;;;;0.20;0.20;;;;;;;;;;5032848;28;20037;-81
2023/07/22 02:21:18;;;;;;;0.00;0.00;;;;;;;;;;5031993;28;20138;-81
2023/07/22 02:23:44;;;;;;;0.00;0.00;;;;;;;;;;5031963;28;20030;-81
2023/07/22 02:26:10;;;;;;;0.10;0.10;;;;;;;;;;5032037;28;20466;-81
2023/07/22 02:28:37;;;;;;;0.25;0.25;;;;;;;;;;5032462;28;20064;-81
2023/07/22 02:31:06;;;;;;;0.00;0.00;;;;;;;;;;5031883;28;20022;-81
2023/07/22 02:33:32;;;;;;;0.00;0.00;;;;;;;;;;5032257;28;20029;-81
2023/07/22 02:35:58;;;;;;;0.35;0.20;;;;;;;;;;5031426;28;20703;-81
2023/07/22 02:38:24;;;;;;;0.20;0.20;;;;;;;;;;5031762;28;20030;-81
2023/07/22 02:40:50;;;;;;;0.10;0.10;;;;;;;;;;5032174;28;20026;-81
2023/07/22 02:43:16;;;;;;;0.00;0.00;;;;;;;;;;5031573;28;20037;-81
2023/07/22 02:45:42;;;;;;;0.03;0.03;;;;;;;;;;5031901;28;20025;-81
2023/07/22 02:48:09;;;;;;;0.15;0.15;;;;;;;;;;5031976;28;20087;-81
2023/07/22 02:50:36;;;;;;;0.00;0.00;;;;;;;;;;5031586;28;20033;-81
2023/07/22 02:53:02;;;;;;;0.10;0.10;;;;;;;;;;5031468;28;20052;-81
2023/07/22 02:55:28;;;;;;;0.10;0.10;;;;;;;;;;5031865;28;20037;-81
2023/07/22 02:57:54;;;;;;;0.10;0.10;;;;;;;;;;5031623;28;20028;-82
2023/07/22 03:00:24;;;;;;;0.00;0.00;;;;;;;;;;5031626;28;20041;-81
2023/07/22 03:02:52;;;;;;;0.10;0.10;;;;;;;;;;5031547;28;20378;-81
2023/07/22 03:05:18;;;;;;;0.00;0.00;;;;;;;;;;5034444;28;20029;-81
2023/07/22 03:07:44;;;;;;;0.10;0.10;;;;;;;;;;5035395;28;20033;-82
2023/07/22 03:10:10;;;;;;;0.00;0.00;;;;;;;;;;5035299;28;20032;-81
2023/07/22 03:12:36;;;;;;;0.00;0.00;;;;;;;;;;5035383;28;20141;-81
2023/07/22 03:15:08;;;;;;;0.10;0.10;;;;;;;;;;5035353;28;20021;-82
2023/07/22 03:17:34;;;;;;;0.00;0.00;;;;;;;;;;5035669;28;20053;-81
2023/07/22 03:20:00;;;;;;;0.10;0.10;;;;;;;;;;5035096;28;20044;-81
2023/07/22 03:22:26;;;;;;;0.10;0.10;;;;;;;;;;5035163;28;20568;-81
2023/07/22 03:24:52;;;;;;;0.00;0.00;;;;;;;;;;5035086;28;20029;-81
2023/07/22 03:27:18;;;;;;;0.10;0.10;;;;;;;;;;5035213;28;20038;-81
2023/07/22 03:29:44;;;;;;;0.00;0.00;;;;;;;;;;5034146;28;20478;-81
2023/07/22 03:32:10;;;;;;;0.10;0.10;;;;;;;;;;5034980;28;20072;-82
2023/07/22 03:34:36;;;;;;;0.10;0.10;;;;;;;;;;5034942;28;20072;-82
2023/07/22 03:37:02;;;;;;;0.10;0.10;;;;;;;;;;5034949;28;20435;-81
2023/07/22 03:39:28;;;;;;;0.28;0.28;;;;;;;;;;5035207;28;20413;-81
2023/07/22 03:41:54;;;;;;;0.13;0.13;;;;;;;;;;5034777;28;20037;-81
2023/07/22 03:44:20;;;;;;;0.10;0.10;;;;;;;;;;5034585;28;20398;-81
2023/07/22 03:46:46;;;;;;;0.00;0.00;;;;;;;;;;5034950;28;20030;-81
2023/07/22 03:49:12;;;;;;;0.10;0.10;;;;;;;;;;5034459;28;20021;-81
2023/07/22 03:51:38;;;;;;;0.08;0.08;;;;;;;;;;5034872;28;20040;-81
2023/07/22 03:54:04;;;;;;;0.00;0.00;;;;;;;;;;5034214;28;20040;-81
2023/07/22 03:56:30;;;;;;;0.10;0.10;;;;;;;;;;5034904;28;20485;-81
2023/07/22 03:58:56;;;;;;;0.00;0.00;;;;;;;;;;5035052;28;20032;-81
2023/07/22 04:01:22;;;;;;;0.52;0.20;;;;;;;;;;5034631;28;20448;-81
2023/07/22 04:03:48;;;;;;;0.38;0.28;;;;;;;;;;5034255;28;20037;-81
2023/07/22 04:06:14;;;;;;;0.20;0.20;;;;;;;;;;5034435;28;20022;-81
2023/07/22 04:08:40;;;;;;;0.20;0.20;;;;;;;;;;5034279;28;20029;-81
2023/07/22 04:11:06;;;;;;;0.08;0.08;;;;;;;;;;5034308;28;20037;-81
2023/07/22 04:13:32;;;;;;;0.20;0.20;;;;;;;;;;5034177;28;20034;-81
2023/07/22 04:15:58;;;;;;;0.00;0.00;;;;;;;;;;5033539;28;20110;-82
2023/07/22 04:18:24;;;;;;;0.20;0.20;;;;;;;;;;5034029;28;20025;-81
2023/07/22 04:20:56;;;;;;;0.10;0.10;;;;;;;;;;5034251;28;20033;-81
2023/07/22 04:23:22;;;;;;;0.10;0.10;;;;;;;;;;5033680;28;20508;-81
2023/07/22 04:25:48;;;;;;;0.00;0.00;;;;;;;;;;5034027;28;20029;-81
2023/07/22 04:28:15;;;;;;;0.15;0.15;;;;;;;;;;5034076;28;20589;-81
2023/07/22 04:30:41;;;;;;;0.10;0.10;;;;;;;;;;5033861;28;20060;-81
2023/07/22 04:33:10;;;;;;;1.45;0.20;;;;;;;;;;5033888;28;20029;-81
2023/07/22 04:35:38;;;;;;;0.00;0.00;;;;;;;;;;5034020;28;20037;-81
2023/07/22 04:38:04;;;;;;;0.22;0.20;;;;;;;;;;5033659;28;20018;-81
2023/07/22 04:40:31;;;;;;;0.32;0.20;;;;;;;;;;5034118;28;20175;-81
2023/07/22 04:42:57;;;;;;;0.20;0.20;;;;;;;;;;5033678;28;20021;-81
2023/07/22 04:45:23;;;;;;;0.00;0.00;;;;;;;;;;5033707;28;20119;-81
2023/07/22 04:47:50;;;;;;;0.10;0.10;;;;;;;;;;5033773;28;20101;-81
2023/07/22 04:50:16;;;;;;;0.10;0.10;;;;;;;;;;5033723;28;20026;-81
2023/07/22 04:52:44;;;;;;;0.17;0.17;;;;;;;;;;5033520;28;20037;-81
2023/07/22 04:55:10;;;;;;;0.10;0.10;;;;;;;;;;5033488;28;20017;-81
2023/07/22 04:57:36;;;;;;;0.10;0.10;;;;;;;;;;5033356;28;20037;-81
2023/07/22 05:00:03;;;;;;;0.00;0.00;;;;;;;;;;5033328;28;20091;-81
2023/07/22 05:02:30;;;;;;;0.05;0.05;;;;;;;;;;5033255;28;20060;-81
2023/07/22 05:04:56;;;;;;;0.10;0.10;;;;;;;;;;5033032;28;20409;-81
2023/07/22 05:07:22;;;;;;;0.30;0.30;;;;;;;;;;5033044;28;20060;-81
2023/07/22 05:09:49;;;;;;;0.20;0.15;;;;;;;;;;5039971;28;20022;-82
2023/07/22 05:12:15;;;;;;;0.25;0.25;;;;;;;;;;5052987;28;20442;-83
2023/07/22 05:14:41;;;;;;;0.10;0.10;;;;;;;;;;5049738;28;20406;-83
2023/07/22 05:17:07;;;;;;;0.20;0.20;;;;;;;;;;5032752;28;20202;-84
2023/07/22 05:19:33;;;;;;;0.10;0.10;;;;;;;;;;5051263;28;20444;-84
2023/07/22 05:21:59;;;;;;;0.00;0.00;;;;;;;;;;5048726;28;20029;-84
2023/07/22 05:24:25;;;;;;;0.10;0.10;;;;;;;;;;5032811;28;20108;-84
2023/07/22 05:26:50;;;;;;;0.10;0.10;;;;;;;;;;5032034;28;20030;-84
2023/07/22 05:29:16;;;;;;;0.20;0.20;;;;;;;;;;5032661;28;20081;-83
2023/07/22 05:31:43;;;;;;;0.00;0.00;;;;;;;;;;5045257;28;20029;-85
2023/07/22 05:34:09;;;;;;;0.10;0.10;;;;;;;;;;5035578;28;20088;-87
2023/07/22 05:36:35;;;;;;;0.15;0.15;;;;;;;;;;5037819;28;20029;-92
2023/07/22 05:39:01;;;;;;;0.13;0.13;;;;;;;;;;5053344;28;20473;-91
2023/07/22 05:41:27;;;;;;;0.05;0.05;;;;;;;;;;5050441;28;20033;-80
2023/07/22 05:43:53;;;;;;;0.30;0.30;;;;;;;;;;5033369;28;20037;-89
2023/07/22 05:46:19;;;;;;;0.20;0.20;;;;;;;;;;5033117;28;20028;-87
2023/07/22 05:48:45;;;;;;;0.00;0.00;;;;;;;;;;5033677;28;20105;-93
2023/07/22 05:51:11;;;;;;;0.05;0.05;;;;;;;;;;5041582;28;20033;-92
2023/07/22 05:53:37;;;;;;;0.10;0.10;;;;;;;;;;5039739;28;20048;-92
2023/07/22 05:56:03;;;;;;;0.10;0.10;;;;;;;;;;5050936;28;20024;-92
2023/07/22 05:58:29;;;;;;;0.10;0.10;;;;;;;;;;5041226;28;20029;-92
2023/07/22 06:00:55;;;;;;;0.10;0.10;;;;;;;;;;5041167;28;20378;-90
2023/07/22 06:03:24;;;;;;;0.10;0.10;;;;;;;;;;5052786;28;20041;-95
2023/07/22 06:05:50;;;;;;;0.32;0.32;;;;;;;;;;5053506;28;20028;-91
2023/07/22 06:08:16;;;;;;;0.20;0.20;;;;;;;;;;5054412;28;20499;-91
2023/07/22 06:10:42;;;;;;;0.10;0.10;;;;;;;;;;5054186;28;20021;-93
2023/07/22 06:13:08;;;;;;;0.43;0.17;;;;;;;;;;5049849;28;20029;-89
2023/07/22 06:15:35;;;;;;;0.20;0.20;;;;;;;;;;5037003;28;20029;-88
2023/07/22 06:18:01;;;;;;;0.10;0.10;;;;;;;;;;5052871;28;20090;-88
2023/07/22 06:20:27;;;;;;;0.00;0.00;;;;;;;;;;5051056;28;20021;-89
2023/07/22 06:22:53;;;;;;;0.17;0.17;;;;;;;;;;5047016;28;20445;-87
2023/07/22 06:25:19;;;;;;;0.00;0.00;;;;;;;;;;5032432;28;20489;-87
2023/07/22 06:27:45;;;;;;;0.10;0.10;;;;;;;;;;5050242;28;20048;-87
2023/07/22 06:30:11;;;;;;;0.10;0.10;;;;;;;;;;5027345;28;20460;-87
2023/07/22 06:32:37;;;;;;;0.20;0.20;;;;;;;;;;5028607;28;20056;-88
2023/07/22 06:35:04;;;;;;;0.28;0.28;;;;;;;;;;5029942;28;20071;-87
2023/07/22 06:37:30;;;;;;;0.32;0.32;;;;;;;;;;5028264;28;20033;-87
2023/07/22 06:39:56;;;;;;;0.30;0.30;;;;;;;;;;5034161;28;20048;-87
2023/07/22 06:42:22;;;;;;;0.25;0.20;;;;;;;;;;5033794;28;20017;-87
2023/07/22 06:44:48;;;;;;;0.32;0.32;;;;;;;;;;5034060;28;20045;-87
2023/07/22 06:47:14;;;;;;;0.10;0.10;;;;;;;;;;5032753;28;20428;-87
2023/07/22 06:49:41;;;;;;;0.17;0.17;;;;;;;;;;5050353;28;20033;-87
2023/07/22 06:52:07;;;;;;;0.73;0.05;;;;;;;;;;5036122;28;20024;-87
2023/07/22 06:54:34;;;;;;;0.25;0.25;;;;;;;;;;5036150;28;20026;-86
2023/07/22 06:57:00;;;;;;;0.13;0.13;;;;;;;;;;5035723;28;20022;-87
2023/07/22 06:59:26;;;;;;;0.10;0.10;;;;;;;;;;5036254;28;20083;-87
2023/07/22 07:01:52;;;;;;;0.00;0.00;;;;;;;;;;5035803;28;20083;-87
2023/07/22 07:04:18;;;;;;;0.40;0.40;;;;;;;;;;5035735;28;20038;-87
2023/07/22 07:06:45;;;;;;;0.38;0.35;;;;;;;;;;5035882;28;20017;-87
2023/07/22 07:09:11;;;;;;;1.00;0.60;;;;;;;;;;5035710;28;20486;-87
2023/07/22 07:11:38;;;;;;;0.10;0.10;;;;;;;;;;5034244;28;20029;-87
2023/07/22 07:14:04;;;;;;;0.10;0.10;;;;;;;;;;5036158;28;20539;-87
2023/07/22 07:16:31;;;;;;;0.10;0.10;;;;;;;;;;5035442;28;20410;-87
2023/07/22 07:18:58;;;;;;;0.03;0.03;;;;;;;;;;5035761;28;20030;-87
2023/07/22 07:21:24;;;;;;;0.32;0.32;;;;;;;;;;5035634;28;20021;-87
2023/07/22 07:23:50;;;;;;;0.10;0.10;;;;;;;;;;5035675;28;20044;-87
2023/07/22 07:26:16;;;;;;;0.10;0.10;;;;;;;;;;5035312;28;20032;-87
2023/07/22 07:28:42;;;;;;;0.15;0.10;;;;;;;;;;5035566;28;20030;-87
2023/07/22 07:31:08;;;;;;;0.00;0.00;;;;;;;;;;5035248;28;20021;-86
2023/07/22 07:33:34;;;;;;;0.55;0.20;;;;;;;;;;5034172;28;20033;-87
2023/07/22 07:36:01;;;;;;;0.20;0.20;;;;;;;;;;5034302;28;20057;-87
2023/07/22 07:38:28;;;;;;;0.00;0.00;;;;;;;;;;5034962;28;20025;-87
2023/07/22 07:40:58;;;;;;;3.88;0.30;;;;;;;;;;5035125;28;20021;-87
2023/07/22 07:43:24;;;;;;;0.00;0.00;;;;;;;;;;5035357;28;20044;-87
2023/07/22 07:45:50;;;;;;;0.25;0.25;;;;;;;;;;5034958;28;20021;-87
2023/07/22 07:48:16;;;;;;;0.38;0.38;;;;;;;;;;5035315;28;20033;-87
2023/07/22 07:50:43;;;;;;;0.10;0.10;;;;;;;;;;5034023;28;20097;-87
2023/07/22 07:53:09;;;;;;;0.10;0.10;;;;;;;;;;5033669;28;20037;-87
2023/07/22 07:55:35;;;;;;;0.90;0.47;;;;;;;;;;5035116;28;20083;-87
2023/07/22 07:58:01;;;;;;;0.20;0.20;;;;;;;;;;5035105;28;20026;-87
2023/07/22 08:00:27;;;;;;;0.30;0.30;;;;;;;;;;5033377;28;20022;-87
2023/07/22 08:02:53;;;;;;;0.30;0.30;;;;;;;;;;5034563;28;20052;-87
2023/07/22 08:05:19;;;;;;;0.30;0.20;;;;;;;;;;5034774;28;20026;-87
2023/07/22 08:07:45;;;;;;;0.00;0.00;;;;;;;;;;5034581;28;20116;-87
2023/07/22 08:10:11;;;;;;;0.15;0.15;;;;;;;;;;5034483;28;20033;-87
2023/07/22 08:12:37;;;;;;;0.10;0.10;;;;;;;;;;5034895;28;20026;-87
2023/07/22 08:15:03;;;;;;;0.20;0.20;;;;;;;;;;5034499;28;20104;-87
2023/07/22 08:17:29;;;;;;;1.00;0.38;;;;;;;;;;5033195;28;20057;-87
2023/07/22 08:19:55;;;;;;;0.75;0.40;;;;;;;;;;5036931;28;20029;-87
2023/07/22 08:22:21;;;;;;;0.20;0.13;;;;;;;;;;5042887;28;20076;-87
2023/07/22 08:24:47;;;;;;;1.98;0.63;;;;;;;;;;5034269;28;20413;-87
2023/07/22 08:27:13;;;;;;;0.57;0.50;;;;;;;;;;5034266;28;20030;-86
2023/07/22 08:29:39;;;;;;;0.13;0.13;;;;;;;;;;5035239;28;20067;-87
2023/07/22 08:32:06;;;;;;;0.10;0.10;;;;;;;;;;5034179;28;20037;-87
2023/07/22 08:34:32;;;;;;;3.63;0.82;;;;;;;;;;5035235;28;20037;-86
2023/07/22 08:36:58;;;;;;;0.17;0.17;;;;;;;;;;5034410;28;20029;-87
2023/07/22 08:39:24;;;;;;;0.30;0.30;;;;;;;;;;5037561;28;20029;-88
2023/07/22 08:41:50;;;;;;;0.28;0.28;;;;;;;;;;5043441;28;20017;-88
2023/07/22 08:44:19;;;;;;;0.50;0.50;;;;;;;;;;5039213;28;20041;-87
2023/07/22 08:46:46;;;;;;;0.10;0.10;;;;;;;;;;5036253;28;20386;-87
2023/07/22 08:49:12;;;;;;;0.10;0.10;;;;;;;;;;5033684;28;20036;-87
2023/07/22 08:51:38;;;;;;;0.20;0.20;;;;;;;;;;5033812;28;20044;-87
2023/07/22 08:54:04;;;;;;;0.10;0.10;;;;;;;;;;5033147;28;20156;-88
2023/07/22 08:56:31;;;;;;;0.65;0.30;;;;;;;;;;5034202;28;20482;-87
2023/07/22 08:58:57;;;;;;;0.10;0.10;;;;;;;;;;5033519;28;20548;-87
2023/07/22 09:01:24;;;;;;;0.20;0.20;;;;;;;;;;5033772;28;20501;-87
2023/07/22 09:03:52;;;;;;;0.30;0.25;;;;;;;;;;5033833;28;20083;-87
2023/07/22 09:06:19;;;;;;;0.10;0.10;;;;;;;;;;5033754;28;20087;-87
2023/07/22 09:08:45;;;;;;;0.10;0.10;;;;;;;;;;5035840;28;20029;-87
2023/07/22 09:11:11;;;;;;;0.20;0.20;;;;;;;;;;5053540;28;20036;-87
2023/07/22 09:13:39;;;;;;;0.20;0.10;;;;;;;;;;5038685;28;20048;-87
2023/07/22 09:16:05;;;;;;;0.20;0.20;;;;;;;;;;5033208;28;20053;-87
2023/07/22 09:18:33;;;;;;;0.10;0.10;;;;;;;;;;5037148;28;20096;-87
2023/07/22 09:20:59;;;;;;;0.73;0.22;;;;;;;;;;5013843;28;20080;-87
2023/07/22 09:23:38;;;;;;;0.13;0.13;;;;;;;;;;5028655;28;20391;-86
2023/07/22 09:26:15;;;;;;;0.10;0.10;;;;;;;;;;5034186;28;20132;-87
2023/07/22 09:28:48;;;;;;;0.15;0.15;;;;;;;;;;5033093;28;20084;-87
2023/07/22 09:31:14;;;;;;;0.45;0.32;;;;;;;;;;5047837;28;20036;-87
2023/07/22 09:33:40;;;;;;;0.00;0.00;;;;;;;;;;5052625;28;20044;-87
2023/07/22 09:36:06;;;;;;;0.17;0.15;;;;;;;;;;5047493;28;20045;-87
2023/07/22 09:38:32;;;;;;;0.00;0.00;;;;;;;;;;5044213;28;20425;-87
2023/07/22 09:40:58;;;;;;;0.00;0.00;;;;;;;;;;5044127;28;20110;-87
2023/07/22 09:43:24;;;;;;;0.10;0.10;;;;;;;;;;5041507;28;20037;-86
2023/07/22 09:45:50;;;;;;;0.55;0.20;;;;;;;;;;5031404;28;20400;-87
2023/07/22 09:48:16;;;;;;;0.00;0.00;;;;;;;;;;5034509;28;20120;-87
2023/07/22 09:50:42;;;;;;;0.10;0.10;;;;;;;;;;5033076;28;20104;-87
2023/07/22 09:53:09;;;;;;;0.00;0.00;;;;;;;;;;5032053;28;20063;-87
2023/07/22 09:55:35;;;;;;;0.10;0.10;;;;;;;;;;5033301;28;20108;-87
2023/07/22 09:58:10;;;;;;;0.40;0.40;;;;;;;;;;5031950;28;20026;-86
2023/07/22 10:00:36;;;;;;;0.00;0.00;;;;;;;;;;5032745;28;20079;-86
2023/07/22 10:03:05;;;;;;;0.73;0.28;;;;;;;;;;5033043;28;20033;-87
2023/07/22 10:05:33;;;;;;;0.13;0.13;;;;;;;;;;5015422;28;20547;-87
2023/07/22 10:07:59;;;;;;;0.30;0.20;;;;;;;;;;5030902;28;20034;-86
2023/07/22 10:10:35;;;;;;;0.20;0.20;;;;;;;;;;5031810;28;20090;-87
2023/07/22 10:13:01;;;;;;;0.10;0.10;;;;;;;;;;5032518;28;20041;-87
2023/07/22 10:15:31;;;;;;;0.10;0.10;;;;;;;;;;5032309;28;20064;-86
2023/07/22 10:17:57;;;;;;;0.15;0.15;;;;;;;;;;5032090;28;20664;-87
2023/07/22 10:20:24;;;;;;;0.20;0.20;;;;;;;;;;5032136;28;20056;-86
2023/07/22 10:22:50;;;;;;;0.25;0.25;;;;;;;;;;5030507;28;20017;-91
2023/07/22 10:25:17;;;;;;;0.10;0.10;;;;;;;;;;5031741;28;20505;-87
2023/07/22 10:27:44;;;;;;;0.15;0.10;;;;;;;;;;5032277;28;20424;-88
2023/07/22 10:30:10;;;;;;;0.00;0.00;;;;;;;;;;5031210;28;20026;-87
2023/07/22 10:32:38;;;;;;;3.65;0.35;;;;;;;;;;5031902;28;20025;-88
2023/07/22 10:35:04;;;;;;;0.35;0.10;;;;;;;;;;5031761;28;20025;-87
2023/07/22 10:37:31;;;;;;;0.20;0.20;;;;;;;;;;5032194;28;20053;-87
2023/07/22 10:40:02;;;;;;;0.10;0.10;;;;;;;;;;5030799;28;20037;-88
2023/07/22 10:42:28;;;;;;;0.10;0.10;;;;;;;;;;5032357;28;20067;-86
2023/07/22 10:44:54;;;;;;;0.20;0.20;;;;;;;;;;5031964;28;20375;-86
2023/07/22 10:47:36;;;;;;;0.10;0.10;;;;;;;;;;5031998;28;20497;-86
2023/07/22 10:50:07;;;;;;;0.45;0.45;;;;;;;;;;5031621;28;20041;-87
2023/07/22 10:52:44;;;;;;;0.10;0.10;;;;;;;;;;5032198;28;20116;-87
2023/07/22 10:55:16;;;;;;;0.00;0.00;;;;;;;;;;5031760;28;20112;-87
2023/07/22 10:57:50;;;;;;;0.10;0.10;;;;;;;;;;5032419;28;20064;-87
2023/07/22 11:00:23;;;;;;;0.10;0.10;;;;;;;;;;5032037;28;20033;-87
2023/07/22 11:03:07;;;;;;;0.10;0.10;;;;;;;;;;5031988;28;20099;-86
2023/07/22 11:05:52;;;;;;;0.22;0.22;;;;;;;;;;5032223;28;20497;-87
2023/07/22 11:08:36;;;;;;;0.10;0.10;;;;;;;;;;5032144;28;20029;-88
2023/07/22 11:11:02;;;;;;;0.25;0.17;;;;;;;;;;5031671;28;20418;-88
2023/07/22 11:13:28;;;;;;;0.22;0.10;;;;;;;;;;5031740;28;20022;-87
2023/07/22 11:15:58;;;;;;;0.10;0.10;;;;;;;;;;5031889;28;20048;-86
2023/07/22 11:18:36;;;;;;;1.45;0.15;;;;;;;;;;5031718;28;20067;-87
2023/07/22 11:21:01;;;;;;;0.08;0.08;;;;;;;;;;5030857;28;20548;-87
2023/07/22 11:23:27;;;;;;;0.40;0.28;;;;;;;;;;5031878;28;20033;-87
2023/07/22 11:25:54;;;;;;;0.30;0.30;;;;;;;;;;5033634;28;20022;-86
2023/07/22 11:28:20;;;;;;;0.20;0.20;;;;;;;;;;5035216;28;20032;-86
2023/07/22 11:30:46;;;;;;;0.00;0.00;;;;;;;;;;5035812;28;20025;-87
2023/07/22 11:33:12;;;;;;;0.10;0.10;;;;;;;;;;5034871;28;20402;-87
2023/07/22 11:35:42;;;;;;;0.13;0.13;;;;;;;;;;5035531;28;20380;-87
2023/07/22 11:38:12;;;;;;;0.15;0.15;;;;;;;;;;5035162;28;20033;-87
2023/07/22 11:40:38;;;;;;;0.20;0.20;;;;;;;;;;5035198;28;20039;-86
2023/07/22 11:43:04;;;;;;;0.20;0.20;;;;;;;;;;5034883;28;20017;-87
2023/07/22 11:45:30;;;;;;;0.10;0.10;;;;;;;;;;5035052;28;20025;-86
2023/07/22 11:47:56;;;;;;;0.55;0.55;;;;;;;;;;5034718;28;20108;-86
2023/07/22 11:50:32;;;;;;;0.15;0.15;;;;;;;;;;5034841;28;20026;-86
2023/07/22 11:52:59;;;;;;;0.80;0.45;;;;;;;;;;5034071;28;20033;-87
2023/07/22 11:55:25;;;;;;;0.20;0.20;;;;;;;;;;5034017;28;20028;-87
2023/07/22 11:57:54;;;;;;;0.30;0.15;;;;;;;;;;5033685;28;20049;-88
2023/07/22 12:00:20;;;;;;;0.13;0.13;;;;;;;;;;5035607;28;20478;-86
2023/07/22 12:02:46;;;;;;;0.30;0.28;;;;;;;;;;5034632;28;20198;-86
2023/07/22 12:05:20;;;;;;;0.10;0.10;;;;;;;;;;5034671;28;20131;-86
2023/07/22 12:07:46;;;;;;;0.00;0.00;;;;;;;;;;5034303;28;20501;-86
2023/07/22 12:10:13;;;;;;;0.00;0.00;;;;;;;;;;5035037;28;20033;-86
2023/07/22 12:12:39;;;;;;;0.00;0.00;;;;;;;;;;5034394;28;20018;-86
2023/07/22 12:15:17;;;;;;;0.00;0.00;;;;;;;;;;5034510;28;20026;-86
2023/07/22 12:17:48;;;;;;;0.00;0.00;;;;;;;;;;5034531;28;20060;-87
2023/07/22 12:20:14;;;;;;;0.00;0.00;;;;;;;;;;5034552;28;20024;-87
2023/07/22 12:22:41;;;;;;;0.17;0.17;;;;;;;;;;5032823;28;20034;-86
2023/07/22 12:25:07;;;;;;;0.00;0.00;;;;;;;;;;5034618;28;20457;-86
2023/07/22 12:27:33;;;;;;;0.00;0.00;;;;;;;;;;5034371;28;20025;-87
2023/07/22 12:29:59;;;;;;;0.00;0.00;;;;;;;;;;5034402;28;20031;-87
2023/07/22 12:32:25;;;;;;;0.20;0.20;;;;;;;;;;5034528;28;20036;-86
2023/07/22 12:34:51;;;;;;;0.08;0.08;;;;;;;;;;5034210;28;20021;-87
2023/07/22 12:37:17;;;;;;;0.03;0.03;;;;;;;;;;5034013;28;20114;-87
2023/07/22 12:39:44;;;;;;;0.10;0.10;;;;;;;;;;5034222;28;20036;-87
2023/07/22 12:42:10;;;;;;;3.70;0.77;;;;;;;;;;5034113;28;20079;-87
2023/07/22 12:44:36;;;;;;;0.10;0.10;;;;;;;;;;5033624;28;20037;-87
2023/07/22 12:47:02;;;;;;;0.17;0.17;;;;;;;;;;5033977;28;20030;-87
2023/07/22 12:49:28;;;;;;;0.00;0.00;;;;;;;;;;5033968;28;20481;-87
2023/07/22 12:51:54;;;;;;;0.10;0.10;;;;;;;;;;5033997;28;20032;-87
2023/07/22 12:54:20;;;;;;;0.03;0.03;;;;;;;;;;5034017;28;20358;-87
2023/07/22 12:56:46;;;;;;;0.10;0.10;;;;;;;;;;5033845;28;20034;-87
2023/07/22 12:59:12;;;;;;;0.10;0.10;;;;;;;;;;5033392;28;20036;-87
2023/07/22 13:01:41;;;;;;;0.10;0.10;;;;;;;;;;5034028;28;20488;-87
2023/07/22 13:04:07;;;;;;;0.10;0.10;;;;;;;;;;5033617;28;20489;-87
2023/07/22 13:06:33;;;;;;;0.20;0.20;;;;;;;;;;5033499;28;20033;-87
2023/07/22 13:08:58;;;;;;;0.05;0.05;;;;;;;;;;5033467;28;20079;-87
2023/07/22 13:11:24;;;;;;;0.30;0.30;;;;;;;;;;5033909;28;20116;-87
2023/07/22 13:13:50;;;;;;;0.30;0.30;;;;;;;;;;5033079;28;20029;-87
2023/07/22 13:16:16;;;;;;;0.00;0.00;;;;;;;;;;5033398;28;20099;-87
2023/07/22 13:18:42;;;;;;;0.00;0.00;;;;;;;;;;5033272;28;20021;-86
2023/07/22 13:21:08;;;;;;;0.20;0.20;;;;;;;;;;5033478;28;20452;-86
2023/07/22 13:23:35;;;;;;;0.00;0.00;;;;;;;;;;5033111;28;20175;-87
2023/07/22 13:26:01;;;;;;;0.00;0.00;;;;;;;;;;5033252;28;20076;-87
2023/07/22 13:28:26;;;;;;;0.65;0.35;;;;;;;;;;5031904;28;20039;-87
2023/07/22 13:30:52;;;;;;;0.10;0.10;;;;;;;;;;5033145;28;20398;-87
2023/07/22 13:33:18;;;;;;;0.00;0.00;;;;;;;;;;5033087;28;20068;-87
2023/07/22 13:35:45;;;;;;;0.55;0.20;;;;;;;;;;5033184;28;20021;-87
2023/07/22 13:38:11;;;;;;;0.10;0.10;;;;;;;;;;5033502;28;20371;-87
2023/07/22 13:40:37;;;;;;;0.00;0.00;;;;;;;;;;5032924;28;20022;-87
2023/07/22 13:43:03;;;;;;;0.10;0.10;;;;;;;;;;5032660;28;20033;-87
2023/07/22 13:45:29;;;;;;;0.10;0.10;;;;;;;;;;5033238;28;20029;-87
2023/07/22 13:47:55;;;;;;;0.25;0.10;;;;;;;;;;5032209;28;20401;-87
2023/07/22 13:50:21;;;;;;;0.10;0.10;;;;;;;;;;5032692;28;20024;-87
2023/07/22 13:52:47;;;;;;;0.00;0.00;;;;;;;;;;5032785;28;20021;-86
2023/07/22 13:55:13;;;;;;;0.15;0.15;;;;;;;;;;5032683;28;20018;-87
2023/07/22 13:57:39;;;;;;;0.00;0.00;;;;;;;;;;5032400;28;20571;-87
2023/07/22 14:00:08;;;;;;;0.20;0.20;;;;;;;;;;5032632;28;20025;-87
2023/07/22 14:02:34;;;;;;;0.00;0.00;;;;;;;;;;5033091;28;20080;-87
2023/07/22 14:05:00;;;;;;;0.00;0.00;;;;;;;;;;5032455;28;20120;-87
2023/07/22 14:07:26;;;;;;;0.30;0.25;;;;;;;;;;5032638;28;20049;-87
2023/07/22 14:09:53;;;;;;;0.00;0.00;;;;;;;;;;5032556;28;20590;-86
2023/07/22 14:12:19;;;;;;;0.00;0.00;;;;;;;;;;5032095;28;20056;-87
2023/07/22 14:14:45;;;;;;;0.05;0.05;;;;;;;;;;5032521;28;20029;-87
2023/07/22 14:17:11;;;;;;;0.10;0.10;;;;;;;;;;5032060;28;20522;-87
2023/07/22 14:19:37;;;;;;;0.30;0.30;;;;;;;;;;5032525;28;20021;-87
2023/07/22 14:22:03;;;;;;;0.10;0.10;;;;;;;;;;5032253;28;20469;-87
2023/07/22 14:24:30;;;;;;;0.00;0.00;;;;;;;;;;5032531;28;20204;-87
2023/07/22 14:26:55;;;;;;;0.22;0.20;;;;;;;;;;5032144;28;20021;-86
2023/07/22 14:29:22;;;;;;;0.10;0.10;;;;;;;;;;5032379;28;20033;-86
2023/07/22 14:31:48;;;;;;;0.10;0.10;;;;;;;;;;5032033;28;20044;-87
2023/07/22 14:34:14;;;;;;;0.13;0.10;;;;;;;;;;5032402;28;20473;-87
2023/07/22 14:36:40;;;;;;;0.20;0.10;;;;;;;;;;5032168;28;20094;-87
2023/07/22 14:39:06;;;;;;;0.22;0.22;;;;;;;;;;5032402;28;20033;-86
2023/07/22 14:41:32;;;;;;;0.00;0.00;;;;;;;;;;5031778;28;20032;-87